sensor_id;sensor_type;location;lat;lon;timestamp;temperature;humidity
5061;DHT22;2549;52.128;21.068;2023-06-19T00:01:08;20.00;99.90
5061;DHT22;2549;52.128;21.068;2023-06-19T00:03:35;20.00;99.90
5061;DHT22;2549;52.128;21.068;2023-06-19T00:06:02;20.00;99.90
5061;DHT22;2549;52.128;21.068;2023-06-19T00:08:29;19.90;99.90
5061;DHT22;2549;52.128;21.068;2023-06-19T00:10:55;19.90;99.90
5061;DHT22;2549;52.128;21.068;2023-06-19T00:13:22;19.90;99.90
5061;DHT22;2549;52.128;21.068;2023-06-19T00:15:49;19.90;99.90
5061;DHT22;2549;52.128;21.068;2023-06-19T00:18:16;19.90;99.90
5061;DHT22;2549;52.128;21.068;2023-06-19T00:20:44;19.90;99.90
5061;DHT22;2549;52.128;21.068;2023-06-19T00:23:13;19.80;99.90
5061;DHT22;2549;52.128;21.068;2023-06-19T00:25:41;19.80;99.90
5061;DHT22;2549;52.128;21.068;2023-06-19T00:28:10;19.80;99.90
5061;DHT22;2549;52.128;21.068;2023-06-19T00:30:40;19.70;99.90
5061;DHT22;2549;52.128;21.068;2023-06-19T00:33:07;19.70;99.90
5061;DHT22;2549;52.128;21.068;2023-06-19T00:35:34;19.70;99.90
5061;DHT22;2549;52.128;21.068;2023-06-19T00:38:01;19.70;99.90
5061;DHT22;2549;52.128;21.068;2023-06-19T00:40:30;19.60;99.90
5061;DHT22;2549;52.128;21.068;2023-06-19T00:42:58;19.60;99.90
5061;DHT22;2549;52.128;21.068;2023-06-19T00:45:25;19.60;99.90
5061;DHT22;2549;52.128;21.068;2023-06-19T00:47:54;19.60;99.90
5061;DHT22;2549;52.128;21.068;2023-06-19T00:50:24;19.60;99.90
5061;DHT22;2549;52.128;21.068;2023-06-19T00:52:52;19.60;99.90
5061;DHT22;2549;52.128;21.068;2023-06-19T00:55:19;19.60;99.90
5061;DHT22;2549;52.128;21.068;2023-06-19T00:57:46;19.50;99.90
5061;DHT22;2549;52.128;21.068;2023-06-19T01:00:14;19.50;99.90
5061;DHT22;2549;52.128;21.068;2023-06-19T01:02:41;19.50;99.90
5061;DHT22;2549;52.128;21.068;2023-06-19T01:05:08;19.50;99.90
5061;DHT22;2549;52.128;21.068;2023-06-19T01:07:58;19.50;99.90
5061;DHT22;2549;52.128;21.068;2023-06-19T01:10:32;19.40;99.90
5061;DHT22;2549;52.128;21.068;2023-06-19T01:13:07;19.40;99.90
5061;DHT22;2549;52.128;21.068;2023-06-19T01:15:35;19.40;99.90
5061;DHT22;2549;52.128;21.068;2023-06-19T01:18:03;19.40;99.90
5061;DHT22;2549;52.128;21.068;2023-06-19T01:20:31;19.30;99.90
5061;DHT22;2549;52.128;21.068;2023-06-19T01:23:06;19.30;99.90
5061;DHT22;2549;52.128;21.068;2023-06-19T01:25:33;19.30;99.90
5061;DHT22;2549;52.128;21.068;2023-06-19T01:28:00;19.30;99.90
5061;DHT22;2549;52.128;21.068;2023-06-19T01:30:27;19.20;99.90
5061;DHT22;2549;52.128;21.068;2023-06-19T01:32:58;19.20;99.90
5061;DHT22;2549;52.128;21.068;2023-06-19T01:35:33;19.20;99.90
5061;DHT22;2549;52.128;21.068;2023-06-19T01:38:01;19.20;99.90
5061;DHT22;2549;52.128;21.068;2023-06-19T01:40:30;19.20;99.90
5061;DHT22;2549;52.128;21.068;2023-06-19T01:42:59;19.20;99.90
5061;DHT22;2549;52.128;21.068;2023-06-19T01:45:28;19.20;99.90
5061;DHT22;2549;52.128;21.068;2023-06-19T01:47:56;19.10;99.90
5061;DHT22;2549;52.128;21.068;2023-06-19T01:50:24;19.10;99.90
5061;DHT22;2549;52.128;21.068;2023-06-19T01:52:51;19.00;99.90
5061;DHT22;2549;52.128;21.068;2023-06-19T01:55:19;19.10;99.90
5061;DHT22;2549;52.128;21.068;2023-06-19T01:57:46;19.00;99.90
5061;DHT22;2549;52.128;21.068;2023-06-19T02:00:13;19.00;99.90
5061;DHT22;2549;52.128;21.068;2023-06-19T02:02:40;19.00;99.90
5061;DHT22;2549;52.128;21.068;2023-06-19T02:05:07;18.90;99.90
5061;DHT22;2549;52.128;21.068;2023-06-19T02:07:34;18.90;99.90
5061;DHT22;2549;52.128;21.068;2023-06-19T02:10:01;18.90;99.90
5061;DHT22;2549;52.128;21.068;2023-06-19T02:12:29;18.90;99.90
5061;DHT22;2549;52.128;21.068;2023-06-19T02:14:56;18.90;99.90
5061;DHT22;2549;52.128;21.068;2023-06-19T02:17:23;18.90;99.90
5061;DHT22;2549;52.128;21.068;2023-06-19T02:19:50;18.90;99.90
5061;DHT22;2549;52.128;21.068;2023-06-19T02:22:18;18.90;99.90
5061;DHT22;2549;52.128;21.068;2023-06-19T02:24:45;18.90;99.90
5061;DHT22;2549;52.128;21.068;2023-06-19T02:27:12;18.90;99.90
5061;DHT22;2549;52.128;21.068;2023-06-19T02:29:39;18.80;99.90
5061;DHT22;2549;52.128;21.068;2023-06-19T02:32:06;18.80;99.90
5061;DHT22;2549;52.128;21.068;2023-06-19T02:34:33;18.80;99.90
5061;DHT22;2549;52.128;21.068;2023-06-19T02:37:00;18.80;99.90
5061;DHT22;2549;52.128;21.068;2023-06-19T02:39:27;18.80;99.90
5061;DHT22;2549;52.128;21.068;2023-06-19T02:41:54;18.80;99.90
5061;DHT22;2549;52.128;21.068;2023-06-19T02:44:21;18.70;99.90
5061;DHT22;2549;52.128;21.068;2023-06-19T02:46:47;18.70;99.90
5061;DHT22;2549;52.128;21.068;2023-06-19T02:49:14;18.70;99.90
5061;DHT22;2549;52.128;21.068;2023-06-19T02:51:41;18.70;99.90
5061;DHT22;2549;52.128;21.068;2023-06-19T02:54:08;18.60;99.90
5061;DHT22;2549;52.128;21.068;2023-06-19T02:56:35;18.60;99.90
5061;DHT22;2549;52.128;21.068;2023-06-19T02:59:02;18.60;99.90
5061;DHT22;2549;52.128;21.068;2023-06-19T03:01:29;18.60;99.90
5061;DHT22;2549;52.128;21.068;2023-06-19T03:03:56;18.50;99.90
5061;DHT22;2549;52.128;21.068;2023-06-19T03:06:23;18.60;99.90
5061;DHT22;2549;52.128;21.068;2023-06-19T03:08:50;18.50;99.90
5061;DHT22;2549;52.128;21.068;2023-06-19T03:11:17;18.50;99.90
5061;DHT22;2549;52.128;21.068;2023-06-19T03:13:50;18.50;99.90
5061;DHT22;2549;52.128;21.068;2023-06-19T03:16:19;18.60;99.90
5061;DHT22;2549;52.128;21.068;2023-06-19T03:18:47;18.50;99.90
5061;DHT22;2549;52.128;21.068;2023-06-19T03:21:18;18.50;99.90
5061;DHT22;2549;52.128;21.068;2023-06-19T03:23:48;18.50;99.90
5061;DHT22;2549;52.128;21.068;2023-06-19T03:26:15;18.50;99.90
5061;DHT22;2549;52.128;21.068;2023-06-19T03:28:42;18.50;99.90
5061;DHT22;2549;52.128;21.068;2023-06-19T03:31:09;18.50;99.90
5061;DHT22;2549;52.128;21.068;2023-06-19T03:33:36;18.50;99.90
5061;DHT22;2549;52.128;21.068;2023-06-19T03:36:03;18.50;99.90
5061;DHT22;2549;52.128;21.068;2023-06-19T03:38:30;18.50;99.90
5061;DHT22;2549;52.128;21.068;2023-06-19T03:40:57;18.50;99.90
5061;DHT22;2549;52.128;21.068;2023-06-19T03:43:24;18.50;99.90
5061;DHT22;2549;52.128;21.068;2023-06-19T03:45:51;18.50;99.90
5061;DHT22;2549;52.128;21.068;2023-06-19T03:48:17;18.50;99.90
5061;DHT22;2549;52.128;21.068;2023-06-19T03:50:44;18.60;99.90
5061;DHT22;2549;52.128;21.068;2023-06-19T03:53:11;18.60;99.90
5061;DHT22;2549;52.128;21.068;2023-06-19T03:55:38;18.60;99.90
5061;DHT22;2549;52.128;21.068;2023-06-19T03:58:05;18.60;99.90
5061;DHT22;2549;52.128;21.068;2023-06-19T04:00:32;18.60;99.90
5061;DHT22;2549;52.128;21.068;2023-06-19T04:02:59;18.70;99.90
5061;DHT22;2549;52.128;21.068;2023-06-19T04:05:26;18.70;99.90
5061;DHT22;2549;52.128;21.068;2023-06-19T04:07:53;18.70;99.90
5061;DHT22;2549;52.128;21.068;2023-06-19T04:10:20;18.70;99.90
5061;DHT22;2549;52.128;21.068;2023-06-19T04:12:48;18.80;99.90
5061;DHT22;2549;52.128;21.068;2023-06-19T04:15:15;18.80;99.90
5061;DHT22;2549;52.128;21.068;2023-06-19T04:17:41;18.90;99.90
5061;DHT22;2549;52.128;21.068;2023-06-19T04:20:09;18.90;99.90
5061;DHT22;2549;52.128;21.068;2023-06-19T04:22:41;19.00;99.90
5061;DHT22;2549;52.128;21.068;2023-06-19T04:25:09;19.00;99.90
5061;DHT22;2549;52.128;21.068;2023-06-19T04:27:40;19.10;99.90
5061;DHT22;2549;52.128;21.068;2023-06-19T04:30:07;19.20;99.90
5061;DHT22;2549;52.128;21.068;2023-06-19T04:32:35;19.20;99.90
5061;DHT22;2549;52.128;21.068;2023-06-19T04:35:02;19.30;99.90
5061;DHT22;2549;52.128;21.068;2023-06-19T04:37:30;19.40;99.90
5061;DHT22;2549;52.128;21.068;2023-06-19T04:39:56;19.50;99.90
5061;DHT22;2549;52.128;21.068;2023-06-19T04:42:24;19.50;99.90
5061;DHT22;2549;52.128;21.068;2023-06-19T04:44:53;19.60;99.90
5061;DHT22;2549;52.128;21.068;2023-06-19T04:47:22;19.70;99.90
5061;DHT22;2549;52.128;21.068;2023-06-19T04:50:02;19.70;99.90
5061;DHT22;2549;52.128;21.068;2023-06-19T04:52:29;19.80;99.90
5061;DHT22;2549;52.128;21.068;2023-06-19T04:55:00;19.90;99.90
5061;DHT22;2549;52.128;21.068;2023-06-19T04:57:27;20.00;99.90
5061;DHT22;2549;52.128;21.068;2023-06-19T04:59:53;20.00;99.90
5061;DHT22;2549;52.128;21.068;2023-06-19T05:02:20;20.00;99.90
5061;DHT22;2549;52.128;21.068;2023-06-19T05:04:47;20.10;99.90
5061;DHT22;2549;52.128;21.068;2023-06-19T05:07:14;20.10;99.90
5061;DHT22;2549;52.128;21.068;2023-06-19T05:09:42;20.20;99.90
5061;DHT22;2549;52.128;21.068;2023-06-19T05:12:10;20.20;99.90
5061;DHT22;2549;52.128;21.068;2023-06-19T05:14:37;20.20;99.90
5061;DHT22;2549;52.128;21.068;2023-06-19T05:17:05;20.30;99.90
5061;DHT22;2549;52.128;21.068;2023-06-19T05:19:32;20.30;99.90
5061;DHT22;2549;52.128;21.068;2023-06-19T05:21:59;20.30;99.90
5061;DHT22;2549;52.128;21.068;2023-06-19T05:24:26;20.40;99.90
5061;DHT22;2549;52.128;21.068;2023-06-19T05:26:53;20.40;99.90
5061;DHT22;2549;52.128;21.068;2023-06-19T05:29:20;20.40;99.90
5061;DHT22;2549;52.128;21.068;2023-06-19T05:31:47;20.50;99.90
5061;DHT22;2549;52.128;21.068;2023-06-19T05:34:14;20.50;99.90
5061;DHT22;2549;52.128;21.068;2023-06-19T05:36:41;20.60;99.90
5061;DHT22;2549;52.128;21.068;2023-06-19T05:39:08;20.60;99.90
5061;DHT22;2549;52.128;21.068;2023-06-19T05:41:36;20.60;99.90
5061;DHT22;2549;52.128;21.068;2023-06-19T05:44:03;20.70;99.90
5061;DHT22;2549;52.128;21.068;2023-06-19T05:46:30;20.70;99.90
5061;DHT22;2549;52.128;21.068;2023-06-19T05:48:57;20.70;99.90
5061;DHT22;2549;52.128;21.068;2023-06-19T05:51:23;20.70;99.90
5061;DHT22;2549;52.128;21.068;2023-06-19T05:53:51;20.80;99.90
5061;DHT22;2549;52.128;21.068;2023-06-19T05:56:18;20.80;99.90
5061;DHT22;2549;52.128;21.068;2023-06-19T05:58:45;20.90;99.90
5061;DHT22;2549;52.128;21.068;2023-06-19T06:01:12;20.90;99.90
5061;DHT22;2549;52.128;21.068;2023-06-19T06:03:39;20.90;99.90
5061;DHT22;2549;52.128;21.068;2023-06-19T06:06:06;20.90;99.90
5061;DHT22;2549;52.128;21.068;2023-06-19T06:08:33;21.00;99.90
5061;DHT22;2549;52.128;21.068;2023-06-19T06:11:00;21.00;99.90
5061;DHT22;2549;52.128;21.068;2023-06-19T06:13:27;21.10;99.90
5061;DHT22;2549;52.128;21.068;2023-06-19T06:15:54;21.10;99.90
5061;DHT22;2549;52.128;21.068;2023-06-19T06:18:21;21.10;99.90
5061;DHT22;2549;52.128;21.068;2023-06-19T06:20:48;21.10;99.90
5061;DHT22;2549;52.128;21.068;2023-06-19T06:23:15;21.20;99.90
5061;DHT22;2549;52.128;21.068;2023-06-19T06:25:42;21.20;99.90
5061;DHT22;2549;52.128;21.068;2023-06-19T06:28:09;21.20;99.90
5061;DHT22;2549;52.128;21.068;2023-06-19T06:30:36;21.20;99.90
5061;DHT22;2549;52.128;21.068;2023-06-19T06:33:03;21.30;99.90
5061;DHT22;2549;52.128;21.068;2023-06-19T06:35:30;21.30;99.90
5061;DHT22;2549;52.128;21.068;2023-06-19T06:37:57;21.30;99.90
5061;DHT22;2549;52.128;21.068;2023-06-19T06:40:24;21.40;99.90
5061;DHT22;2549;52.128;21.068;2023-06-19T06:42:51;21.40;99.90
5061;DHT22;2549;52.128;21.068;2023-06-19T06:45:19;21.40;99.90
5061;DHT22;2549;52.128;21.068;2023-06-19T06:47:47;21.40;99.90
5061;DHT22;2549;52.128;21.068;2023-06-19T06:50:14;21.40;99.90
5061;DHT22;2549;52.128;21.068;2023-06-19T06:52:41;21.50;99.90
5061;DHT22;2549;52.128;21.068;2023-06-19T06:55:08;21.50;99.90
5061;DHT22;2549;52.128;21.068;2023-06-19T06:57:35;21.50;99.90
5061;DHT22;2549;52.128;21.068;2023-06-19T07:00:04;21.50;99.90
5061;DHT22;2549;52.128;21.068;2023-06-19T07:02:31;21.50;99.90
5061;DHT22;2549;52.128;21.068;2023-06-19T07:04:58;21.50;99.90
5061;DHT22;2549;52.128;21.068;2023-06-19T07:07:25;21.60;99.90
5061;DHT22;2549;52.128;21.068;2023-06-19T07:09:51;21.60;99.90
5061;DHT22;2549;52.128;21.068;2023-06-19T07:12:18;21.60;99.90
5061;DHT22;2549;52.128;21.068;2023-06-19T07:14:45;21.70;99.90
5061;DHT22;2549;52.128;21.068;2023-06-19T07:17:12;22.10;99.90
5061;DHT22;2549;52.128;21.068;2023-06-19T07:19:39;21.90;99.90
5061;DHT22;2549;52.128;21.068;2023-06-19T07:22:06;21.80;99.90
5061;DHT22;2549;52.128;21.068;2023-06-19T07:24:33;21.80;99.90
5061;DHT22;2549;52.128;21.068;2023-06-19T07:27:00;21.80;99.90
5061;DHT22;2549;52.128;21.068;2023-06-19T07:29:27;21.80;99.90
5061;DHT22;2549;52.128;21.068;2023-06-19T07:31:53;21.80;99.90
5061;DHT22;2549;52.128;21.068;2023-06-19T07:34:20;21.80;99.90
5061;DHT22;2549;52.128;21.068;2023-06-19T07:36:48;21.80;99.90
5061;DHT22;2549;52.128;21.068;2023-06-19T07:39:15;21.90;99.90
5061;DHT22;2549;52.128;21.068;2023-06-19T07:41:41;21.80;99.50
5061;DHT22;2549;52.128;21.068;2023-06-19T07:44:08;21.90;99.60
5061;DHT22;2549;52.128;21.068;2023-06-19T07:46:35;21.80;99.20
5061;DHT22;2549;52.128;21.068;2023-06-19T07:49:02;21.80;99.50
5061;DHT22;2549;52.128;21.068;2023-06-19T07:51:30;21.90;99.40
5061;DHT22;2549;52.128;21.068;2023-06-19T07:53:57;21.90;99.10
5061;DHT22;2549;52.128;21.068;2023-06-19T07:56:24;22.00;99.00
5061;DHT22;2549;52.128;21.068;2023-06-19T07:58:51;22.10;99.40
5061;DHT22;2549;52.128;21.068;2023-06-19T08:01:18;22.10;99.20
5061;DHT22;2549;52.128;21.068;2023-06-19T08:03:45;22.20;99.10
5061;DHT22;2549;52.128;21.068;2023-06-19T08:06:13;22.30;99.00
5061;DHT22;2549;52.128;21.068;2023-06-19T08:08:39;22.40;99.60
5061;DHT22;2549;52.128;21.068;2023-06-19T08:11:06;22.40;99.30
5061;DHT22;2549;52.128;21.068;2023-06-19T08:13:33;22.50;99.70
5061;DHT22;2549;52.128;21.068;2023-06-19T08:16:00;22.50;99.70
5061;DHT22;2549;52.128;21.068;2023-06-19T08:18:27;22.50;99.60
5061;DHT22;2549;52.128;21.068;2023-06-19T08:20:54;22.60;98.80
5061;DHT22;2549;52.128;21.068;2023-06-19T08:23:21;22.50;98.30
5061;DHT22;2549;52.128;21.068;2023-06-19T08:25:48;22.60;98.60
5061;DHT22;2549;52.128;21.068;2023-06-19T08:28:15;22.60;98.70
5061;DHT22;2549;52.128;21.068;2023-06-19T08:30:41;22.60;99.00
5061;DHT22;2549;52.128;21.068;2023-06-19T08:33:08;22.60;98.70
5061;DHT22;2549;52.128;21.068;2023-06-19T08:35:35;22.70;98.70
5061;DHT22;2549;52.128;21.068;2023-06-19T08:38:02;22.80;99.30
5061;DHT22;2549;52.128;21.068;2023-06-19T08:40:29;22.80;99.20
5061;DHT22;2549;52.128;21.068;2023-06-19T08:42:56;22.90;99.50
5061;DHT22;2549;52.128;21.068;2023-06-19T08:45:23;22.90;99.30
5061;DHT22;2549;52.128;21.068;2023-06-19T08:47:49;23.00;99.20
5061;DHT22;2549;52.128;21.068;2023-06-19T08:50:25;23.10;99.10
5061;DHT22;2549;52.128;21.068;2023-06-19T08:52:53;23.10;99.00
5061;DHT22;2549;52.128;21.068;2023-06-19T08:55:21;23.10;98.50
5061;DHT22;2549;52.128;21.068;2023-06-19T08:57:48;23.10;98.40
5061;DHT22;2549;52.128;21.068;2023-06-19T09:00:27;23.10;98.50
5061;DHT22;2549;52.128;21.068;2023-06-19T09:03:01;23.10;97.60
5061;DHT22;2549;52.128;21.068;2023-06-19T09:05:41;23.10;98.00
5061;DHT22;2549;52.128;21.068;2023-06-19T09:08:13;23.00;97.20
5061;DHT22;2549;52.128;21.068;2023-06-19T09:10:43;23.10;96.70
5061;DHT22;2549;52.128;21.068;2023-06-19T09:13:10;23.20;96.70
5061;DHT22;2549;52.128;21.068;2023-06-19T09:15:37;23.20;96.50
5061;DHT22;2549;52.128;21.068;2023-06-19T09:18:07;23.20;96.80
5061;DHT22;2549;52.128;21.068;2023-06-19T09:20:42;23.20;96.00
5061;DHT22;2549;52.128;21.068;2023-06-19T09:23:12;23.20;95.20
5061;DHT22;2549;52.128;21.068;2023-06-19T09:25:49;23.20;94.60
5061;DHT22;2549;52.128;21.068;2023-06-19T09:28:25;23.20;93.50
5061;DHT22;2549;52.128;21.068;2023-06-19T09:31:01;23.30;93.80
5061;DHT22;2549;52.128;21.068;2023-06-19T09:33:30;23.40;93.60
5061;DHT22;2549;52.128;21.068;2023-06-19T09:35:58;23.40;94.10
5061;DHT22;2549;52.128;21.068;2023-06-19T09:38:31;23.40;93.80
5061;DHT22;2549;52.128;21.068;2023-06-19T09:41:01;23.50;93.50
5061;DHT22;2549;52.128;21.068;2023-06-19T09:46:07;23.60;93.70
5061;DHT22;2549;52.128;21.068;2023-06-19T09:48:34;23.70;93.50
5061;DHT22;2549;52.128;21.068;2023-06-19T09:51:23;23.60;93.60
5061;DHT22;2549;52.128;21.068;2023-06-19T09:53:57;23.60;93.70
5061;DHT22;2549;52.128;21.068;2023-06-19T09:56:26;23.70;94.00
5061;DHT22;2549;52.128;21.068;2023-06-19T09:58:56;23.70;94.30
5061;DHT22;2549;52.128;21.068;2023-06-19T10:01:29;23.80;94.80
5061;DHT22;2549;52.128;21.068;2023-06-19T10:04:07;23.90;95.00
5061;DHT22;2549;52.128;21.068;2023-06-19T10:06:45;23.90;94.50
5061;DHT22;2549;52.128;21.068;2023-06-19T10:09:14;24.00;94.90
5061;DHT22;2549;52.128;21.068;2023-06-19T10:11:46;24.00;94.20
5061;DHT22;2549;52.128;21.068;2023-06-19T10:14:14;24.00;93.50
5061;DHT22;2549;52.128;21.068;2023-06-19T10:16:41;24.10;93.30
5061;DHT22;2549;52.128;21.068;2023-06-19T10:19:17;24.20;93.00
5061;DHT22;2549;52.128;21.068;2023-06-19T10:21:49;24.10;93.50
5061;DHT22;2549;52.128;21.068;2023-06-19T10:24:17;24.10;92.90
5061;DHT22;2549;52.128;21.068;2023-06-19T10:27:02;24.10;92.40
5061;DHT22;2549;52.128;21.068;2023-06-19T10:29:39;24.20;92.60
5061;DHT22;2549;52.128;21.068;2023-06-19T10:32:17;24.10;92.20
5061;DHT22;2549;52.128;21.068;2023-06-19T10:34:48;24.20;91.50
5061;DHT22;2549;52.128;21.068;2023-06-19T10:37:17;24.30;91.20
5061;DHT22;2549;52.128;21.068;2023-06-19T10:39:44;24.30;90.60
5061;DHT22;2549;52.128;21.068;2023-06-19T10:42:11;24.30;90.20
5061;DHT22;2549;52.128;21.068;2023-06-19T10:44:38;24.40;90.30
5061;DHT22;2549;52.128;21.068;2023-06-19T10:47:05;24.40;90.30
5061;DHT22;2549;52.128;21.068;2023-06-19T10:49:35;24.30;90.50
5061;DHT22;2549;52.128;21.068;2023-06-19T10:52:02;24.40;91.50
5061;DHT22;2549;52.128;21.068;2023-06-19T10:54:29;24.40;92.00
5061;DHT22;2549;52.128;21.068;2023-06-19T10:56:56;24.60;92.20
5061;DHT22;2549;52.128;21.068;2023-06-19T10:59:24;24.60;92.20
5061;DHT22;2549;52.128;21.068;2023-06-19T11:01:52;24.70;92.00
5061;DHT22;2549;52.128;21.068;2023-06-19T11:04:19;24.70;91.70
5061;DHT22;2549;52.128;21.068;2023-06-19T11:06:46;24.70;91.90
5061;DHT22;2549;52.128;21.068;2023-06-19T11:09:14;24.80;92.40
5061;DHT22;2549;52.128;21.068;2023-06-19T11:11:46;24.90;92.40
5061;DHT22;2549;52.128;21.068;2023-06-19T11:14:14;24.90;92.50
5061;DHT22;2549;52.128;21.068;2023-06-19T11:16:44;24.90;91.70
5061;DHT22;2549;52.128;21.068;2023-06-19T11:19:20;25.00;91.90
5061;DHT22;2549;52.128;21.068;2023-06-19T11:21:49;25.00;91.20
5061;DHT22;2549;52.128;21.068;2023-06-19T11:24:17;25.10;91.90
5061;DHT22;2549;52.128;21.068;2023-06-19T11:26:47;25.10;91.30
5061;DHT22;2549;52.128;21.068;2023-06-19T11:29:22;25.20;91.30
5061;DHT22;2549;52.128;21.068;2023-06-19T11:31:50;25.20;91.20
5061;DHT22;2549;52.128;21.068;2023-06-19T11:34:17;25.30;90.10
5061;DHT22;2549;52.128;21.068;2023-06-19T11:36:49;25.40;90.60
5061;DHT22;2549;52.128;21.068;2023-06-19T11:39:17;25.40;90.50
5061;DHT22;2549;52.128;21.068;2023-06-19T11:41:44;25.50;90.80
5061;DHT22;2549;52.128;21.068;2023-06-19T11:44:11;25.50;90.70
5061;DHT22;2549;52.128;21.068;2023-06-19T11:46:38;25.60;90.50
5061;DHT22;2549;52.128;21.068;2023-06-19T11:51:38;25.70;90.60
5061;DHT22;2549;52.128;21.068;2023-06-19T11:54:07;25.60;90.70
5061;DHT22;2549;52.128;21.068;2023-06-19T11:56:38;25.60;91.00
5061;DHT22;2549;52.128;21.068;2023-06-19T11:59:06;25.70;90.90
5061;DHT22;2549;52.128;21.068;2023-06-19T12:01:34;25.60;91.00
5061;DHT22;2549;52.128;21.068;2023-06-19T12:04:02;25.70;89.80
5061;DHT22;2549;52.128;21.068;2023-06-19T12:06:30;25.70;90.40
5061;DHT22;2549;52.128;21.068;2023-06-19T12:08:56;25.90;90.50
5061;DHT22;2549;52.128;21.068;2023-06-19T12:11:23;25.90;91.00
5061;DHT22;2549;52.128;21.068;2023-06-19T12:13:51;25.90;90.10
5061;DHT22;2549;52.128;21.068;2023-06-19T12:16:20;26.00;90.30
5061;DHT22;2549;52.128;21.068;2023-06-19T12:18:47;26.10;90.40
5061;DHT22;2549;52.128;21.068;2023-06-19T12:21:14;26.10;90.00
5061;DHT22;2549;52.128;21.068;2023-06-19T12:24:00;26.20;90.00
5061;DHT22;2549;52.128;21.068;2023-06-19T12:26:27;26.30;90.00
5061;DHT22;2549;52.128;21.068;2023-06-19T12:28:54;26.30;86.50
5061;DHT22;2549;52.128;21.068;2023-06-19T12:31:21;26.30;86.40
5061;DHT22;2549;52.128;21.068;2023-06-19T12:33:48;26.20;86.00
5061;DHT22;2549;52.128;21.068;2023-06-19T12:36:15;26.20;86.40
5061;DHT22;2549;52.128;21.068;2023-06-19T12:38:42;26.20;84.70
5061;DHT22;2549;52.128;21.068;2023-06-19T12:41:09;26.30;85.70
5061;DHT22;2549;52.128;21.068;2023-06-19T12:43:36;26.30;85.10
5061;DHT22;2549;52.128;21.068;2023-06-19T12:46:03;26.20;83.90
5061;DHT22;2549;52.128;21.068;2023-06-19T12:48:30;26.30;84.20
5061;DHT22;2549;52.128;21.068;2023-06-19T12:50:58;26.40;84.60
5061;DHT22;2549;52.128;21.068;2023-06-19T12:53:25;26.50;85.20
5061;DHT22;2549;52.128;21.068;2023-06-19T12:55:57;26.50;84.10
5061;DHT22;2549;52.128;21.068;2023-06-19T12:58:29;26.40;83.10
5061;DHT22;2549;52.128;21.068;2023-06-19T13:00:56;26.40;84.20
5061;DHT22;2549;52.128;21.068;2023-06-19T13:03:23;26.30;83.90
5061;DHT22;2549;52.128;21.068;2023-06-19T13:05:50;26.30;81.60
5061;DHT22;2549;52.128;21.068;2023-06-19T13:08:17;26.20;81.80
5061;DHT22;2549;52.128;21.068;2023-06-19T13:10:44;26.30;81.20
5061;DHT22;2549;52.128;21.068;2023-06-19T13:13:12;26.30;82.60
5061;DHT22;2549;52.128;21.068;2023-06-19T13:15:39;26.40;81.50
5061;DHT22;2549;52.128;21.068;2023-06-19T13:18:06;26.40;80.70
5061;DHT22;2549;52.128;21.068;2023-06-19T13:20:33;26.40;80.50
5061;DHT22;2549;52.128;21.068;2023-06-19T13:23:02;26.50;78.80
5061;DHT22;2549;52.128;21.068;2023-06-19T13:25:29;26.50;77.50
5061;DHT22;2549;52.128;21.068;2023-06-19T13:27:55;26.50;78.40
5061;DHT22;2549;52.128;21.068;2023-06-19T13:30:22;26.70;78.50
5061;DHT22;2549;52.128;21.068;2023-06-19T13:32:50;26.70;78.40
5061;DHT22;2549;52.128;21.068;2023-06-19T13:35:16;26.80;79.50
5061;DHT22;2549;52.128;21.068;2023-06-19T13:37:43;26.80;80.80
5061;DHT22;2549;52.128;21.068;2023-06-19T13:40:10;26.90;80.70
5061;DHT22;2549;52.128;21.068;2023-06-19T13:42:37;26.90;81.80
5061;DHT22;2549;52.128;21.068;2023-06-19T13:45:05;26.90;80.50
5061;DHT22;2549;52.128;21.068;2023-06-19T13:47:33;26.80;78.60
5061;DHT22;2549;52.128;21.068;2023-06-19T13:50:00;26.80;79.10
5061;DHT22;2549;52.128;21.068;2023-06-19T13:52:26;26.90;81.60
5061;DHT22;2549;52.128;21.068;2023-06-19T13:54:54;26.90;81.60
5061;DHT22;2549;52.128;21.068;2023-06-19T13:57:22;26.90;82.20
5061;DHT22;2549;52.128;21.068;2023-06-19T13:59:48;27.00;82.60
5061;DHT22;2549;52.128;21.068;2023-06-19T14:02:16;27.00;81.70
5061;DHT22;2549;52.128;21.068;2023-06-19T14:04:43;27.10;81.40
5061;DHT22;2549;52.128;21.068;2023-06-19T14:07:10;27.10;81.80
5061;DHT22;2549;52.128;21.068;2023-06-19T14:09:37;27.10;80.20
5061;DHT22;2549;52.128;21.068;2023-06-19T14:12:05;27.20;81.60
5061;DHT22;2549;52.128;21.068;2023-06-19T14:14:33;27.20;81.80
5061;DHT22;2549;52.128;21.068;2023-06-19T14:17:00;27.20;82.00
5061;DHT22;2549;52.128;21.068;2023-06-19T14:19:27;27.20;82.70
5061;DHT22;2549;52.128;21.068;2023-06-19T14:21:55;27.20;82.30
5061;DHT22;2549;52.128;21.068;2023-06-19T14:24:24;27.30;81.70
5061;DHT22;2549;52.128;21.068;2023-06-19T14:26:51;27.40;80.60
5061;DHT22;2549;52.128;21.068;2023-06-19T14:29:18;27.40;80.40
5061;DHT22;2549;52.128;21.068;2023-06-19T14:31:47;27.40;78.60
5061;DHT22;2549;52.128;21.068;2023-06-19T14:34:14;27.40;77.80
5061;DHT22;2549;52.128;21.068;2023-06-19T14:36:41;27.50;78.50
5061;DHT22;2549;52.128;21.068;2023-06-19T14:39:07;27.60;77.10
5061;DHT22;2549;52.128;21.068;2023-06-19T14:41:34;27.70;76.20
5061;DHT22;2549;52.128;21.068;2023-06-19T14:44:01;27.70;75.70
5061;DHT22;2549;52.128;21.068;2023-06-19T14:46:29;27.80;78.30
5061;DHT22;2549;52.128;21.068;2023-06-19T14:49:10;27.80;77.10
5061;DHT22;2549;52.128;21.068;2023-06-19T14:51:40;27.80;76.00
5061;DHT22;2549;52.128;21.068;2023-06-19T14:54:08;27.80;76.70
5061;DHT22;2549;52.128;21.068;2023-06-19T14:56:35;27.80;77.10
5061;DHT22;2549;52.128;21.068;2023-06-19T14:59:02;27.80;78.00
5061;DHT22;2549;52.128;21.068;2023-06-19T15:01:29;27.80;75.30
5061;DHT22;2549;52.128;21.068;2023-06-19T15:03:56;27.70;74.40
5061;DHT22;2549;52.128;21.068;2023-06-19T15:06:24;27.70;73.70
5061;DHT22;2549;52.128;21.068;2023-06-19T15:08:51;27.70;74.30
5061;DHT22;2549;52.128;21.068;2023-06-19T15:11:18;27.70;75.50
5061;DHT22;2549;52.128;21.068;2023-06-19T15:13:45;27.70;76.50
5061;DHT22;2549;52.128;21.068;2023-06-19T15:16:12;27.70;76.90
5061;DHT22;2549;52.128;21.068;2023-06-19T15:18:43;27.70;75.30
5061;DHT22;2549;52.128;21.068;2023-06-19T15:21:10;27.60;74.50
5061;DHT22;2549;52.128;21.068;2023-06-19T15:23:37;27.60;73.90
5061;DHT22;2549;52.128;21.068;2023-06-19T15:26:04;27.50;74.90
5061;DHT22;2549;52.128;21.068;2023-06-19T15:28:33;27.50;73.60
5061;DHT22;2549;52.128;21.068;2023-06-19T15:31:00;27.50;75.20
5061;DHT22;2549;52.128;21.068;2023-06-19T15:33:27;27.50;76.40
5061;DHT22;2549;52.128;21.068;2023-06-19T15:35:54;27.50;76.40
5061;DHT22;2549;52.128;21.068;2023-06-19T15:38:21;27.40;75.50
5061;DHT22;2549;52.128;21.068;2023-06-19T15:40:47;27.40;75.60
5061;DHT22;2549;52.128;21.068;2023-06-19T15:43:14;27.50;74.50
5061;DHT22;2549;52.128;21.068;2023-06-19T15:45:41;27.50;75.00
5061;DHT22;2549;52.128;21.068;2023-06-19T15:48:08;27.50;74.80
5061;DHT22;2549;52.128;21.068;2023-06-19T15:50:35;27.40;76.90
5061;DHT22;2549;52.128;21.068;2023-06-19T15:53:02;27.50;75.00
5061;DHT22;2549;52.128;21.068;2023-06-19T15:55:29;27.50;74.60